Time;durP1;ratioP1;P1;durP2;ratioP2;P2;SDS_P1;SDS_P2;PMS_P1;PMS_P2;Temp;Humidity;BMP_temperature;BMP_pressure;BME280_temperature;BME280_humidity;BME280_pressure;Samples;Min_cycle;Max_cycle;Signal;HPM_P1;HPM_P2
2024/01/19 03:56:46;;;;;;;21.60;19.90;;;4.60;22.30;;;;;;6226938;22;20479;-80
2024/01/19 03:59:11;;;;;;;23.90;22.17;;;4.60;21.60;;;;;;6253196;22;20386;-81
2024/01/19 04:01:37;;;;;;;22.43;20.57;;;4.40;21.60;;;;;;6249024;23;20565;-81
2024/01/19 04:04:03;;;;;;;22.03;20.43;;;4.20;22.90;;;;;;6250859;23;20381;-81
2024/01/19 04:06:28;;;;;;;22.70;21.00;;;4.30;22.70;;;;;;6224942;23;20178;-81
2024/01/19 04:08:54;;;;;;;22.27;20.67;;;4.40;22.60;;;;;;6225802;23;20158;-81
2024/01/19 04:11:19;;;;;;;21.37;19.47;;;4.50;22.20;;;;;;6229244;22;20158;-81
2024/01/19 04:13:45;;;;;;;24.20;22.07;;;4.70;21.90;;;;;;6225755;23;20178;-83
2024/01/19 04:16:10;;;;;;;23.20;21.43;;;4.80;21.70;;;;;;6223877;23;20152;-81
2024/01/19 04:18:36;;;;;;;22.20;20.63;;;4.90;21.60;;;;;;6225071;23;20218;-81
2024/01/19 04:21:01;;;;;;;23.07;21.30;;;5.00;20.70;;;;;;6225651;23;20175;-82
2024/01/19 04:23:27;;;;;;;24.63;22.93;;;5.10;20.90;;;;;;6250821;22;20209;-82
2024/01/19 04:25:52;;;;;;;21.57;20.07;;;5.20;20.90;;;;;;6225529;23;20235;-81
2024/01/19 04:28:18;;;;;;;21.70;20.07;;;5.20;20.90;;;;;;6227179;23;20156;-82
2024/01/19 04:30:44;;;;;;;24.17;22.17;;;5.20;21.70;;;;;;6228234;23;20211;-81
2024/01/19 04:33:09;;;;;;;24.37;22.43;;;5.30;20.60;;;;;;6229252;23;20202;-81
2024/01/19 04:35:35;;;;;;;24.27;22.43;;;5.00;20.80;;;;;;6231077;23;20151;-81
2024/01/19 04:38:00;;;;;;;24.37;22.47;;;4.70;21.30;;;;;;6231390;23;20245;-82
2024/01/19 04:40:26;;;;;;;23.60;21.90;;;4.30;21.90;;;;;;6229157;23;20179;-81
2024/01/19 04:42:51;;;;;;;21.57;20.00;;;4.10;22.40;;;;;;6225379;23;20234;-83
2024/01/19 04:45:17;;;;;;;24.33;22.43;;;4.00;22.80;;;;;;6255807;23;20151;-82
2024/01/19 04:47:42;;;;;;;21.70;20.00;;;4.20;22.80;;;;;;6230914;23;20151;-82
2024/01/19 04:50:08;;;;;;;24.67;22.60;;;4.40;22.50;;;;;;6230671;23;20159;-81
2024/01/19 04:52:33;;;;;;;23.23;21.40;;;4.70;22.10;;;;;;6241240;23;20185;-83
2024/01/19 04:54:59;;;;;;;23.00;21.20;;;5.00;21.60;;;;;;6227252;23;20270;-81
2024/01/19 04:57:24;;;;;;;23.90;21.63;;;5.20;20.90;;;;;;6241686;23;20248;-81
2024/01/19 04:59:50;;;;;;;22.63;21.00;;;5.40;21.00;;;;;;6250269;23;20237;-82
2024/01/19 05:02:15;;;;;;;23.37;21.67;;;5.60;21.20;;;;;;6249494;22;20214;-81
2024/01/19 05:04:41;;;;;;;24.03;22.23;;;5.60;20.30;;;;;;6247818;23;20158;-80
2024/01/19 05:07:07;;;;;;;23.97;22.17;;;5.70;20.00;;;;;;6248704;23;20151;-80
2024/01/19 05:09:32;;;;;;;22.90;21.20;;;5.70;19.70;;;;;;6249081;23;20607;-80
2024/01/19 05:11:58;;;;;;;24.80;23.00;;;5.80;19.50;;;;;;6249242;22;20402;-80
2024/01/19 05:14:23;;;;;;;24.80;22.60;;;5.70;19.20;;;;;;6249243;23;20458;-81
2024/01/19 05:16:49;;;;;;;24.07;22.20;;;5.50;19.60;;;;;;6251394;23;20147;-79
2024/01/19 05:19:15;;;;;;;24.23;22.03;;;5.40;20.30;;;;;;6250430;23;20210;-80
2024/01/19 05:21:40;;;;;;;26.30;24.17;;;5.20;20.40;;;;;;6246512;22;20405;-81
2024/01/19 05:24:06;;;;;;;23.23;21.47;;;5.10;20.60;;;;;;6246420;23;20156;-81
2024/01/19 05:26:31;;;;;;;22.70;21.20;;;4.70;21.30;;;;;;6248238;23;20166;-81
2024/01/19 05:28:57;;;;;;;23.37;21.77;;;4.30;22.30;;;;;;6247402;23;20234;-80
2024/01/19 05:31:22;;;;;;;27.13;24.80;;;4.10;22.60;;;;;;6247837;22;20152;-80
2024/01/19 05:33:48;;;;;;;25.33;23.47;;;4.00;23.00;;;;;;6248920;23;20155;-81
2024/01/19 05:36:13;;;;;;;23.33;21.57;;;3.70;23.60;;;;;;6247399;23;20258;-80
2024/01/19 05:38:39;;;;;;;25.23;23.33;;;3.60;24.10;;;;;;6247615;23;20507;-79
2024/01/19 05:41:05;;;;;;;25.50;23.80;;;3.40;24.80;;;;;;6247287;23;20174;-80
2024/01/19 05:43:30;;;;;;;24.60;22.70;;;3.40;24.70;;;;;;6245909;22;20182;-80
2024/01/19 05:45:56;;;;;;;23.53;21.63;;;3.40;24.50;;;;;;6249229;23;20148;-80
2024/01/19 05:48:22;;;;;;;23.70;21.60;;;3.50;24.60;;;;;;6247369;23;20619;-80
2024/01/19 05:50:49;;;;;;;24.10;22.10;;;3.60;23.90;;;;;;6246552;23;20155;-80
2024/01/19 05:53:14;;;;;;;23.43;21.83;;;3.50;23.90;;;;;;6246595;22;20406;-81
2024/01/19 05:55:40;;;;;;;25.43;23.37;;;3.50;24.20;;;;;;6247785;23;20397;-80
2024/01/19 05:58:05;;;;;;;23.10;21.40;;;3.80;24.20;;;;;;6247645;23;20167;-80
2024/01/19 06:00:31;;;;;;;23.27;21.50;;;4.00;23.10;;;;;;6250155;23;20197;-80
2024/01/19 06:02:57;;;;;;;22.77;21.07;;;3.80;22.70;;;;;;6250153;22;20171;-81
2024/01/19 06:05:22;;;;;;;23.20;21.50;;;3.70;23.30;;;;;;6248850;23;20229;-83
2024/01/19 06:07:48;;;;;;;23.63;21.93;;;3.90;23.70;;;;;;6246909;23;20151;-82
2024/01/19 06:10:13;;;;;;;22.00;20.30;;;3.90;24.00;;;;;;6251825;23;20238;-80
2024/01/19 06:12:39;;;;;;;22.73;21.00;;;4.20;23.70;;;;;;6252552;22;20198;-81
2024/01/19 06:15:05;;;;;;;22.07;20.37;;;4.40;23.30;;;;;;6252077;23;20195;-83
2024/01/19 06:17:30;;;;;;;21.70;20.00;;;4.70;22.10;;;;;;6252841;23;20182;-82
2024/01/19 06:19:56;;;;;;;20.70;19.07;;;4.90;21.20;;;;;;6251466;23;20486;-83
2024/01/19 06:22:22;;;;;;;20.90;19.40;;;5.00;20.80;;;;;;6252314;22;20167;-83
2024/01/19 06:24:51;;;;;;;20.50;19.20;;;5.10;20.90;;;;;;6253989;23;20156;-83
2024/01/19 06:27:19;;;;;;;20.83;19.53;;;5.20;20.30;;;;;;6254731;23;20155;-83
2024/01/19 06:29:45;;;;;;;22.50;20.90;;;5.20;20.00;;;;;;6255190;22;20370;-81
2024/01/19 06:32:11;;;;;;;20.43;18.63;;;5.20;19.90;;;;;;6253522;22;20413;-84
2024/01/19 06:34:39;;;;;;;20.67;18.97;;;5.20;19.70;;;;;;6251139;23;20178;-82
2024/01/19 06:37:06;;;;;;;19.57;18.07;;;5.20;19.60;;;;;;6253164;22;20871;-82
2024/01/19 06:39:32;;;;;;;20.40;18.90;;;5.20;19.50;;;;;;6254288;23;20465;-81
2024/01/19 06:41:57;;;;;;;20.07;18.70;;;5.20;19.70;;;;;;6255116;22;20397;-84
2024/01/19 06:44:23;;;;;;;19.67;18.40;;;5.20;19.50;;;;;;6256245;23;20523;-83
2024/01/19 06:46:48;;;;;;;20.80;19.20;;;5.20;19.50;;;;;;6249378;23;20162;-80
2024/01/19 06:49:14;;;;;;;19.50;18.10;;;5.20;19.50;;;;;;6250333;23;20146;-81
2024/01/19 06:51:39;;;;;;;19.30;17.77;;;5.20;19.20;;;;;;6252487;22;20625;-83
2024/01/19 06:54:05;;;;;;;19.80;18.57;;;5.10;19.40;;;;;;6252841;23;20156;-82
2024/01/19 06:56:31;;;;;;;18.57;17.27;;;5.10;19.40;;;;;;6260830;22;20238;-83
2024/01/19 06:58:57;;;;;;;20.27;18.77;;;5.20;19.30;;;;;;6229053;23;20148;-81
2024/01/19 07:01:23;;;;;;;20.43;18.87;;;5.10;19.30;;;;;;6250663;22;20168;-83
2024/01/19 07:03:49;;;;;;;20.57;19.10;;;5.10;19.50;;;;;;6228745;23;20155;-81
2024/01/19 07:06:14;;;;;;;21.70;20.10;;;5.10;19.20;;;;;;6222877;23;20425;-80
2024/01/19 07:08:40;;;;;;;20.60;19.10;;;5.10;19.20;;;;;;6232366;23;20374;-81
2024/01/19 07:11:06;;;;;;;18.70;17.37;;;5.10;19.50;;;;;;6229623;23;20230;-82
2024/01/19 07:13:31;;;;;;;18.03;16.80;;;5.10;19.60;;;;;;6230760;23;20183;-83
2024/01/19 07:15:57;;;;;;;20.37;18.80;;;5.10;19.40;;;;;;6256770;23;20147;-81
2024/01/19 07:18:22;;;;;;;20.50;18.87;;;5.10;19.40;;;;;;6255082;23;20155;-83
2024/01/19 07:20:48;;;;;;;20.53;18.90;;;5.10;19.20;;;;;;6230563;23;20175;-82
2024/01/19 07:23:13;;;;;;;22.70;21.00;;;5.10;19.30;;;;;;6228758;23;20516;-82
2024/01/19 07:25:39;;;;;;;22.27;20.40;;;5.10;19.40;;;;;;6228379;23;20157;-81
2024/01/19 07:28:05;;;;;;;19.87;18.17;;;5.10;19.20;;;;;;6234399;23;20159;-81
2024/01/19 07:30:31;;;;;;;19.70;18.30;;;5.10;19.30;;;;;;6234380;23;20441;-82
2024/01/19 07:32:57;;;;;;;20.40;18.90;;;5.10;19.30;;;;;;6257793;22;20198;-81
2024/01/19 07:35:39;;;;;;;25.33;23.03;;;5.10;19.20;;;;;;6232143;23;20389;-82
2024/01/19 07:38:04;;;;;;;21.60;19.90;;;5.20;19.30;;;;;;6230780;23;20228;-82
2024/01/19 07:40:30;;;;;;;22.47;20.87;;;5.30;19.40;;;;;;6254774;23;20896;-82
2024/01/19 10:28:39;;;;;;;24.70;22.70;;;5.50;19.60;;;;;;6213178;22;20444;-76
2024/01/19 10:31:26;;;;;;;25.50;23.70;;;5.50;19.70;;;;;;6250545;22;20389;-82
2024/01/19 10:33:57;;;;;;;24.47;22.57;;;5.40;20.00;;;;;;6231243;23;20794;-80
2024/01/19 10:36:23;;;;;;;21.17;19.43;;;5.50;19.90;;;;;;6223442;23;20572;-79
2024/01/19 10:38:49;;;;;;;21.13;19.63;;;5.40;19.70;;;;;;6219884;23;20378;-79
2024/01/19 10:41:16;;;;;;;21.90;20.27;;;5.40;19.60;;;;;;6247144;23;20414;-79
2024/01/19 10:43:42;;;;;;;23.10;21.30;;;5.40;19.20;;;;;;6221362;23;20245;-79
2024/01/19 10:46:26;;;;;;;21.13;19.60;;;5.10;20.00;;;;;;6220837;23;20786;-79
2024/01/19 10:48:52;;;;;;;24.00;21.80;;;5.00;20.40;;;;;;6247195;23;20999;-79
2024/01/19 10:51:19;;;;;;;24.60;22.73;;;4.80;21.20;;;;;;6221421;23;20394;-78
2024/01/19 10:53:47;;;;;;;24.23;22.50;;;4.80;21.30;;;;;;6220549;23;20402;-79
2024/01/19 10:56:23;;;;;;;22.87;21.17;;;4.70;21.40;;;;;;6249397;23;20725;-80
2024/01/19 10:58:51;;;;;;;20.97;19.47;;;4.80;21.90;;;;;;6224437;23;20392;-80
2024/01/19 11:01:17;;;;;;;19.20;17.93;;;4.90;21.00;;;;;;6195869;23;20429;-78
2024/01/19 11:03:43;;;;;;;19.70;18.20;;;5.00;20.70;;;;;;6220615;23;20426;-78
2024/01/19 11:06:10;;;;;;;19.03;17.73;;;5.00;20.80;;;;;;6222140;23;20374;-79
2024/01/19 11:08:36;;;;;;;20.77;19.27;;;5.10;20.30;;;;;;6221311;23;20788;-78
2024/01/19 11:11:04;;;;;;;15.83;14.73;;;5.10;20.90;;;;;;6248904;23;20831;-77
2024/01/19 11:13:35;;;;;;;14.73;13.40;;;5.20;19.70;;;;;;6220041;23;20426;-78
2024/01/19 11:16:06;;;;;;;19.03;17.67;;;5.30;18.90;;;;;;6220060;23;20477;-78
2024/01/19 11:18:32;;;;;;;16.40;15.27;;;5.40;18.40;;;;;;6221593;23;20366;-79
2024/01/19 11:20:58;;;;;;;20.13;18.73;;;5.50;18.10;;;;;;6249602;23;20410;-79
2024/01/19 11:23:24;;;;;;;22.33;20.40;;;5.50;18.40;;;;;;6247770;22;20247;-79
2024/01/19 11:26:16;;;;;;;14.23;13.33;;;5.60;18.20;;;;;;6250028;23;20366;-79
2024/01/19 11:29:03;;;;;;;13.33;12.63;;;5.40;18.00;;;;;;6222603;23;20831;-80
2024/01/19 11:31:31;;;;;;;14.80;13.80;;;5.00;18.80;;;;;;6222894;23;20699;-80
2024/01/19 11:33:57;;;;;;;23.20;21.23;;;4.90;19.40;;;;;;6223215;23;20410;-80
2024/01/19 11:36:41;;;;;;;26.17;24.10;;;5.00;19.00;;;;;;6250523;23;20380;-80
2024/01/19 11:39:08;;;;;;;20.83;19.27;;;5.20;18.60;;;;;;6222569;23;20143;-79
2024/01/19 11:41:35;;;;;;;15.00;14.00;;;5.30;18.40;;;;;;6250214;23;20414;-80
2024/01/19 11:44:03;;;;;;;14.70;13.57;;;5.50;18.10;;;;;;6223350;23;20415;-80
2024/01/19 11:46:42;;;;;;;14.83;13.83;;;5.60;17.60;;;;;;6223212;23;20386;-80
2024/01/19 11:49:08;;;;;;;16.80;15.63;;;5.70;17.10;;;;;;6223424;23;20389;-80
2024/01/19 11:51:35;;;;;;;16.87;15.47;;;5.80;17.60;;;;;;6223930;23;20414;-80
2024/01/19 11:54:04;;;;;;;14.57;13.60;;;5.80;17.90;;;;;;6223613;23;20413;-79
2024/01/19 11:56:30;;;;;;;16.47;14.80;;;5.60;17.80;;;;;;6250519;23;20375;-79
2024/01/19 11:58:56;;;;;;;15.03;14.00;;;5.00;19.20;;;;;;6252045;23;20385;-79
2024/01/19 12:01:22;;;;;;;16.37;15.23;;;5.00;20.10;;;;;;6222080;23;20496;-78
2024/01/19 12:03:56;;;;;;;14.37;13.47;;;4.80;19.80;;;;;;6222767;23;20171;-78
2024/01/19 12:06:23;;;;;;;14.80;13.63;;;4.60;19.90;;;;;;6231052;23;20881;-79
2024/01/19 12:09:12;;;;;;;13.83;12.90;;;4.30;20.30;;;;;;6226633;23;20374;-82
2024/01/19 12:11:38;;;;;;;13.43;12.53;;;4.20;19.90;;;;;;6249875;23;20405;-80
2024/01/19 12:14:04;;;;;;;14.67;13.77;;;4.50;19.10;;;;;;6233152;23;20663;-81
2024/01/19 12:16:38;;;;;;;14.77;13.57;;;4.70;19.30;;;;;;6237747;23;20163;-82
2024/01/19 12:19:05;;;;;;;14.27;13.27;;;4.90;18.90;;;;;;6240619;23;20382;-81
2024/01/19 12:21:31;;;;;;;12.13;11.33;;;5.10;18.30;;;;;;6240327;23;20437;-79
2024/01/19 12:23:57;;;;;;;13.07;12.27;;;5.30;17.50;;;;;;6238964;23;20406;-79
2024/01/19 12:26:23;;;;;;;13.00;12.20;;;5.40;16.90;;;;;;6238482;23;20178;-83
2024/01/19 12:28:58;;;;;;;15.03;13.17;;;5.50;17.00;;;;;;6230553;23;20461;-82
2024/01/19 12:32:21;;;;;;;13.10;12.20;;;5.20;17.10;;;;;;6226289;23;20390;-82
2024/01/19 12:34:57;;;;;;;13.80;12.93;;;5.20;16.90;;;;;;6244309;23;20386;-83
2024/01/19 12:37:23;;;;;;;12.53;11.83;;;5.30;17.50;;;;;;6224662;23;20378;-80
2024/01/19 12:39:49;;;;;;;13.07;12.27;;;5.50;17.50;;;;;;6225535;23;20505;-81
2024/01/19 12:42:35;;;;;;;13.70;12.80;;;5.60;16.60;;;;;;6224392;22;20151;-80
2024/01/19 12:45:04;;;;;;;14.20;13.10;;;5.60;16.40;;;;;;6223323;23;20378;-81
2024/01/19 12:51:21;;;;;;;15.50;14.37;;;5.80;17.20;;;;;;6205849;23;20402;-81
2024/01/19 12:53:54;;;;;;;18.10;16.83;;;5.80;17.80;;;;;;6241294;23;20417;-81
2024/01/19 12:56:28;;;;;;;17.00;15.90;;;5.70;18.50;;;;;;6219456;23;20702;-80
2024/01/19 12:59:37;;;;;;;16.57;15.37;;;5.60;19.30;;;;;;6219188;23;20378;-80
2024/01/19 13:02:04;;;;;;;16.50;15.27;;;5.50;18.90;;;;;;6240531;23;20776;-81
2024/01/19 13:04:33;;;;;;;15.57;14.57;;;5.40;19.00;;;;;;6248645;22;20424;-79
2024/01/19 13:07:00;;;;;;;17.87;16.57;;;5.50;18.90;;;;;;6225425;23;20162;-81
2024/01/19 13:09:39;;;;;;;16.00;14.90;;;5.50;18.90;;;;;;6225231;23;20703;-80
2024/01/19 13:12:13;;;;;;;16.50;15.40;;;5.50;18.80;;;;;;6226106;23;20378;-83
2024/01/19 13:14:41;;;;;;;18.40;17.10;;;5.60;19.00;;;;;;6200532;23;20377;-81
2024/01/19 13:17:10;;;;;;;17.57;16.00;;;5.60;19.10;;;;;;6252196;23;20450;-80
2024/01/19 13:19:51;;;;;;;16.23;14.83;;;5.60;19.20;;;;;;6225282;23;20432;-82
2024/01/19 13:23:02;;;;;;;17.40;16.20;;;5.60;18.30;;;;;;6240055;22;20418;-83
2024/01/19 13:25:50;;;;;;;17.33;16.13;;;5.60;18.30;;;;;;6195076;23;20393;-83
2024/01/19 13:28:45;;;;;;;17.40;16.27;;;5.60;18.90;;;;;;6230256;23;20731;-80
2024/01/19 13:31:17;;;;;;;18.80;17.60;;;5.60;18.30;;;;;;6251058;23;20386;-80
2024/01/19 13:33:46;;;;;;;19.73;18.33;;;5.70;18.30;;;;;;6223934;23;20403;-81
2024/01/19 13:36:15;;;;;;;19.63;18.23;;;5.70;18.80;;;;;;6226325;23;20469;-81
2024/01/19 13:38:45;;;;;;;19.87;18.47;;;5.60;19.00;;;;;;6224972;23;20413;-81
2024/01/19 13:41:16;;;;;;;19.70;18.30;;;5.60;19.00;;;;;;6225291;23;20418;-80
2024/01/19 13:43:44;;;;;;;19.30;18.07;;;5.50;19.20;;;;;;6196388;23;20418;-76
2024/01/19 13:46:13;;;;;;;21.33;19.67;;;5.50;19.50;;;;;;6223125;23;20501;-80
2024/01/19 13:49:04;;;;;;;20.17;18.87;;;5.60;19.60;;;;;;6250785;23;20397;-81
2024/01/19 13:51:48;;;;;;;18.53;17.20;;;5.60;19.70;;;;;;6223555;23;20397;-82
2024/01/19 13:54:14;;;;;;;17.97;16.77;;;5.70;18.80;;;;;;6223085;23;20416;-82
2024/01/19 13:56:40;;;;;;;16.00;15.00;;;5.60;17.90;;;;;;6225125;23;20408;-81
2024/01/19 13:59:05;;;;;;;16.80;15.50;;;5.50;18.00;;;;;;6222424;23;20419;-81
2024/01/19 14:01:36;;;;;;;15.97;14.87;;;5.50;18.10;;;;;;6223482;23;20650;-83
2024/01/19 14:04:05;;;;;;;18.00;16.80;;;5.20;18.10;;;;;;6249901;22;20181;-81
2024/01/19 14:06:31;;;;;;;18.10;16.70;;;5.20;18.20;;;;;;6250824;23;20575;-81
2024/01/19 14:08:56;;;;;;;17.30;16.00;;;5.20;18.40;;;;;;6250388;23;20390;-81
2024/01/19 14:11:22;;;;;;;18.57;17.17;;;5.20;18.40;;;;;;6250213;23;20366;-81
2024/01/19 14:13:49;;;;;;;18.80;17.60;;;5.20;18.50;;;;;;6223478;23;20518;-81
2024/01/19 14:16:15;;;;;;;18.77;17.47;;;5.20;18.90;;;;;;6251730;23;20378;-80
2024/01/19 14:18:41;;;;;;;18.70;17.40;;;5.20;19.00;;;;;;6251385;23;20378;-79
2024/01/19 14:21:07;;;;;;;21.20;19.73;;;5.20;19.00;;;;;;6222701;23;20444;-80
2024/01/19 14:23:32;;;;;;;22.30;20.67;;;5.20;19.40;;;;;;6249722;22;20406;-81
2024/01/19 14:26:00;;;;;;;20.67;19.13;;;5.20;20.00;;;;;;6222261;23;20156;-81
2024/01/19 14:28:26;;;;;;;21.07;19.57;;;5.20;20.00;;;;;;6220701;23;20194;-80
2024/01/19 14:30:55;;;;;;;21.97;20.47;;;5.20;19.70;;;;;;6220315;23;20398;-79
2024/01/19 14:33:22;;;;;;;21.33;19.83;;;5.10;19.80;;;;;;6248468;22;20179;-78
2024/01/19 14:35:48;;;;;;;21.47;19.77;;;5.10;20.00;;;;;;6220426;23;20458;-78
2024/01/19 14:38:16;;;;;;;22.60;20.80;;;5.20;20.50;;;;;;6222039;23;20167;-79
2024/01/19 14:40:42;;;;;;;19.97;18.47;;;5.20;20.00;;;;;;6248309;23;20541;-79
2024/01/19 14:43:07;;;;;;;21.37;19.83;;;5.20;19.80;;;;;;6220244;23;20410;-78
2024/01/19 14:45:33;;;;;;;20.37;18.97;;;5.30;20.10;;;;;;6221721;23;20232;-79
2024/01/19 14:47:59;;;;;;;20.83;19.43;;;5.30;20.10;;;;;;6222183;23;20183;-80
2024/01/19 14:50:25;;;;;;;19.20;17.80;;;5.40;19.60;;;;;;6221152;23;20156;-79
2024/01/19 14:52:50;;;;;;;18.77;17.47;;;5.40;19.70;;;;;;6248356;22;20167;-79
2024/01/19 14:55:16;;;;;;;20.93;19.40;;;5.40;19.70;;;;;;6247510;23;20433;-79
2024/01/19 14:57:42;;;;;;;19.50;18.20;;;5.40;19.30;;;;;;6249186;23;20235;-78
2024/01/19 15:00:08;;;;;;;20.07;18.57;;;5.40;19.90;;;;;;6247457;23;20175;-79
2024/01/19 15:02:36;;;;;;;21.30;19.67;;;5.40;19.40;;;;;;6248530;22;20249;-79
2024/01/19 15:05:03;;;;;;;20.07;18.60;;;5.30;19.40;;;;;;6247877;23;20370;-80
2024/01/19 15:07:30;;;;;;;22.77;21.03;;;5.30;19.60;;;;;;6220378;23;20371;-80
2024/01/19 15:09:55;;;;;;;21.47;19.97;;;5.40;19.30;;;;;;6222320;23;20414;-80
2024/01/19 15:12:21;;;;;;;20.30;18.80;;;5.30;19.10;;;;;;6247870;22;20381;-80
2024/01/19 15:14:46;;;;;;;21.20;19.60;;;5.30;19.20;;;;;;6220157;23;20155;-80
2024/01/19 15:17:12;;;;;;;21.93;20.33;;;5.30;18.90;;;;;;6247950;23;20154;-79
2024/01/19 15:19:37;;;;;;;21.87;20.13;;;5.30;18.80;;;;;;6222396;23;20159;-80
2024/01/19 15:22:03;;;;;;;22.33;20.53;;;5.20;19.30;;;;;;6222886;23;20485;-80
2024/01/19 15:24:31;;;;;;;22.40;20.70;;;5.00;19.30;;;;;;6249044;22;20227;-80
2024/01/19 15:26:56;;;;;;;22.57;20.77;;;4.90;19.90;;;;;;6253983;23;20144;-80
2024/01/19 15:29:23;;;;;;;22.00;20.13;;;4.70;20.60;;;;;;6231187;23;20479;-79
2024/01/19 15:31:48;;;;;;;21.50;19.50;;;4.70;20.50;;;;;;6204806;23;20182;-78
2024/01/19 15:34:14;;;;;;;21.63;20.10;;;4.80;20.50;;;;;;6222132;23;20766;-80
2024/01/19 15:36:42;;;;;;;21.63;20.03;;;4.90;19.90;;;;;;6224216;23;20495;-80
2024/01/19 15:39:08;;;;;;;23.43;21.57;;;4.90;19.60;;;;;;6225111;23;20155;-79
2024/01/19 15:41:34;;;;;;;22.20;20.60;;;5.00;19.70;;;;;;6250861;23;20444;-78
2024/01/19 15:43:59;;;;;;;21.20;19.50;;;5.00;19.40;;;;;;6249951;22;20217;-78
2024/01/19 15:46:26;;;;;;;23.77;21.87;;;5.10;19.50;;;;;;6224784;23;20195;-77
2024/01/19 15:48:54;;;;;;;21.53;19.73;;;5.20;19.30;;;;;;6250521;23;20466;-78
2024/01/19 15:51:21;;;;;;;22.57;20.70;;;5.20;19.20;;;;;;6247958;23;20465;-78
2024/01/19 15:53:48;;;;;;;21.93;20.23;;;5.20;19.40;;;;;;6249023;22;20430;-78
2024/01/19 15:56:20;;;;;;;32.03;29.23;;;5.10;19.10;;;;;;6220250;23;20436;-79
2024/01/19 15:58:48;;;;;;;22.90;21.20;;;5.10;18.80;;;;;;6248020;23;20844;-78
2024/01/19 16:01:14;;;;;;;22.93;21.20;;;5.10;18.80;;;;;;6247952;23;20406;-77
2024/01/19 16:03:43;;;;;;;22.30;20.60;;;5.00;19.20;;;;;;6249721;22;20426;-78
2024/01/19 16:06:10;;;;;;;21.40;19.80;;;4.90;19.20;;;;;;6220965;23;20397;-77
2024/01/19 16:08:35;;;;;;;20.87;19.37;;;5.00;19.30;;;;;;6219991;23;20753;-80
2024/01/19 16:11:01;;;;;;;20.80;19.23;;;5.00;19.00;;;;;;6220101;23;20386;-76
2024/01/19 16:13:28;;;;;;;22.43;20.53;;;5.00;18.60;;;;;;6215681;23;20182;-77
2024/01/19 16:15:54;;;;;;;23.47;21.37;;;5.00;18.70;;;;;;6245239;23;20593;-79
2024/01/19 16:18:20;;;;;;;21.93;20.30;;;5.00;18.90;;;;;;6219695;23;20380;-79
2024/01/19 16:20:46;;;;;;;21.27;19.50;;;4.90;19.00;;;;;;6218208;23;20198;-79
2024/01/19 16:23:14;;;;;;;21.40;19.80;;;4.40;20.10;;;;;;6219960;23;20175;-79
2024/01/19 16:25:40;;;;;;;22.50;20.70;;;4.00;20.50;;;;;;6220073;23;20386;-80
2024/01/19 16:28:10;;;;;;;21.77;19.97;;;3.90;21.40;;;;;;6219957;23;20386;-80
2024/01/19 16:30:36;;;;;;;22.93;21.03;;;4.10;20.70;;;;;;6232658;23;20626;-80
2024/01/19 16:33:03;;;;;;;23.30;21.00;;;4.30;20.30;;;;;;6246807;22;20413;-79
2024/01/19 16:35:28;;;;;;;22.00;20.20;;;4.40;20.20;;;;;;6246334;23;20179;-80
2024/01/19 16:37:54;;;;;;;23.03;21.33;;;4.00;20.80;;;;;;6247933;23;20875;-81
2024/01/19 16:40:19;;;;;;;22.10;20.50;;;3.90;21.00;;;;;;6247823;23;20182;-79
2024/01/19 16:42:45;;;;;;;20.40;18.93;;;4.00;21.10;;;;;;6247107;22;20277;-81
2024/01/19 16:45:11;;;;;;;21.97;20.07;;;4.20;20.40;;;;;;6245625;23;20151;-77
2024/01/19 16:47:37;;;;;;;22.77;21.07;;;4.20;20.30;;;;;;6249473;22;20172;-79
2024/01/19 16:50:03;;;;;;;21.50;19.90;;;4.00;20.70;;;;;;6245460;23;20431;-79
2024/01/19 16:52:29;;;;;;;20.80;19.40;;;4.10;20.20;;;;;;6246753;22;20631;-80
2024/01/19 16:54:57;;;;;;;22.10;20.50;;;4.20;20.30;;;;;;6246104;23;20382;-80
2024/01/19 16:57:22;;;;;;;22.73;20.97;;;4.30;20.40;;;;;;6246284;23;20212;-77
2024/01/19 16:59:48;;;;;;;22.70;21.10;;;4.30;20.30;;;;;;6247469;23;20421;-77
2024/01/19 17:02:13;;;;;;;21.70;20.20;;;4.40;20.10;;;;;;6250436;22;20423;-80
2024/01/19 17:04:39;;;;;;;20.90;19.40;;;4.50;19.70;;;;;;6247322;23;20619;-79
2024/01/19 17:07:04;;;;;;;22.00;20.27;;;4.50;19.50;;;;;;6251229;23;20230;-79
2024/01/19 17:09:30;;;;;;;22.07;20.37;;;4.60;19.20;;;;;;6248130;23;20537;-76
2024/01/19 17:11:55;;;;;;;21.70;20.10;;;4.60;19.10;;;;;;6248666;23;20151;-80
2024/01/19 17:14:21;;;;;;;21.53;20.00;;;4.60;19.10;;;;;;6245845;22;20515;-79
2024/01/19 17:16:46;;;;;;;23.03;21.13;;;4.60;18.70;;;;;;6248137;23;20182;-79
2024/01/19 17:19:16;;;;;;;23.63;21.63;;;4.30;19.70;;;;;;6248097;23;20156;-81
2024/01/19 17:21:42;;;;;;;24.97;22.77;;;4.10;20.30;;;;;;6246664;23;20183;-81
2024/01/19 17:24:08;;;;;;;25.90;23.50;;;4.20;20.30;;;;;;6247602;22;20808;-80
2024/01/19 17:26:33;;;;;;;24.13;22.23;;;3.80;20.40;;;;;;6249308;23;20462;-81
2024/01/19 17:28:59;;;;;;;24.83;22.67;;;3.50;21.90;;;;;;6247256;23;20163;-80
2024/01/19 17:31:29;;;;;;;22.00;20.40;;;3.70;21.60;;;;;;6247058;23;20225;-77
2024/01/19 17:33:58;;;;;;;23.07;21.37;;;3.90;20.40;;;;;;6247988;22;20183;-81
2024/01/19 17:36:25;;;;;;;24.47;22.67;;;4.10;20.20;;;;;;6249993;23;20445;-82
2024/01/19 17:38:50;;;;;;;24.27;21.90;;;4.30;20.30;;;;;;6248936;23;20482;-80
2024/01/19 17:41:16;;;;;;;23.70;22.00;;;4.20;19.90;;;;;;6252906;22;20417;-80
2024/01/19 17:43:42;;;;;;;23.37;21.67;;;4.20;20.30;;;;;;6248220;22;20250;-79
2024/01/19 17:46:11;;;;;;;21.53;20.03;;;4.30;20.30;;;;;;6247259;23;20155;-80
2024/01/19 17:48:37;;;;;;;25.07;23.07;;;4.50;19.90;;;;;;6248134;22;20143;-80
2024/01/19 17:51:03;;;;;;;22.37;20.63;;;4.60;19.30;;;;;;6248082;23;20385;-80
2024/01/19 17:53:29;;;;;;;20.13;18.63;;;4.80;19.00;;;;;;6247137;22;20495;-79
2024/01/19 17:55:55;;;;;;;20.13;18.63;;;4.90;18.90;;;;;;6246820;23;20386;-80
2024/01/19 17:58:22;;;;;;;19.87;18.27;;;5.00;17.90;;;;;;6248846;22;20195;-80
2024/01/19 18:00:48;;;;;;;20.83;19.33;;;5.10;17.50;;;;;;6249344;22;20593;-80
2024/01/19 18:03:14;;;;;;;20.57;19.00;;;5.10;17.20;;;;;;6246079;22;20555;-80
2024/01/19 18:05:39;;;;;;;22.07;20.20;;;5.20;17.40;;;;;;6247258;23;20219;-81
2024/01/19 18:08:05;;;;;;;20.23;18.73;;;5.00;17.10;;;;;;6247221;23;20663;-80
2024/01/19 18:10:31;;;;;;;22.50;20.80;;;4.90;17.10;;;;;;6248430;23;20158;-81
2024/01/19 18:12:56;;;;;;;21.73;20.20;;;4.60;17.80;;;;;;6246151;22;20179;-80
2024/01/19 18:15:22;;;;;;;21.50;20.10;;;4.40;18.10;;;;;;6245916;23;20189;-80
2024/01/19 18:17:48;;;;;;;20.60;18.80;;;4.40;18.80;;;;;;6249009;23;20158;-80
2024/01/19 18:20:14;;;;;;;22.30;20.50;;;4.60;18.60;;;;;;6249222;22;20202;-80
2024/01/19 18:22:40;;;;;;;21.70;20.00;;;4.80;18.00;;;;;;6248259;22;20413;-79
2024/01/19 18:25:06;;;;;;;19.60;18.20;;;4.80;17.90;;;;;;6247075;22;20205;-80
2024/01/19 18:27:32;;;;;;;19.97;18.47;;;4.80;17.90;;;;;;6247383;23;20194;-81
2024/01/19 18:29:57;;;;;;;21.80;19.90;;;4.90;17.60;;;;;;6247240;23;20414;-79
2024/01/19 18:32:35;;;;;;;22.57;20.67;;;4.90;17.80;;;;;;6246736;22;20152;-77
2024/01/19 18:35:00;;;;;;;22.97;20.87;;;4.90;17.60;;;;;;6241908;23;20227;-80
2024/01/19 18:37:27;;;;;;;21.93;19.90;;;4.80;17.50;;;;;;6246115;23;20374;-81
2024/01/19 18:39:58;;;;;;;22.87;20.90;;;4.40;18.30;;;;;;6245220;23;20182;-80
2024/01/19 18:42:25;;;;;;;21.40;19.73;;;4.30;19.00;;;;;;6246932;22;20906;-81
2024/01/19 18:44:51;;;;;;;21.53;19.93;;;4.40;18.90;;;;;;6246223;23;20374;-81
2024/01/19 18:47:16;;;;;;;21.97;20.10;;;4.50;18.40;;;;;;6245819;23;20155;-78
2024/01/19 18:49:42;;;;;;;22.03;20.33;;;4.60;18.20;;;;;;6247606;23;20289;-80
2024/01/19 18:52:07;;;;;;;24.27;22.47;;;4.70;18.10;;;;;;6247234;23;20154;-80
2024/01/19 18:54:33;;;;;;;22.90;21.00;;;4.80;17.70;;;;;;6247474;22;20167;-79
2024/01/19 18:56:58;;;;;;;22.50;20.70;;;4.70;18.00;;;;;;6250596;23;20148;-80
2024/01/19 18:59:25;;;;;;;23.57;21.77;;;4.80;18.00;;;;;;6250819;23;20550;-79
2024/01/19 19:01:51;;;;;;;20.60;19.10;;;4.80;17.60;;;;;;6249360;23;20179;-78
2024/01/19 19:04:16;;;;;;;21.17;19.60;;;4.90;17.50;;;;;;6247970;22;20491;-80
2024/01/19 19:06:42;;;;;;;24.00;22.10;;;4.90;17.40;;;;;;6249764;23;20147;-81
2024/01/19 19:09:08;;;;;;;22.00;20.30;;;4.80;17.70;;;;;;6250589;22;20179;-80
2024/01/19 19:11:33;;;;;;;21.27;19.57;;;4.70;18.20;;;;;;6248170;23;20386;-80
2024/01/19 19:13:59;;;;;;;20.17;18.67;;;4.70;17.80;;;;;;6249663;22;20202;-81
2024/01/19 19:16:25;;;;;;;20.90;19.30;;;4.70;17.50;;;;;;6249093;23;20155;-79
2024/01/19 19:18:51;;;;;;;19.97;18.47;;;4.80;17.40;;;;;;6248594;23;20463;-80
2024/01/19 19:21:17;;;;;;;20.17;18.47;;;4.90;17.20;;;;;;6250620;23;20225;-81
2024/01/19 19:23:44;;;;;;;25.13;22.93;;;4.90;16.90;;;;;;6248022;22;20238;-80